^^
Station Historical Data
Daily Summary for January 8, 2018 Units:  English    Metric   Both
« Previous Day
Next Day »
Daily Weekly Monthly Yearly Custom
  High: Low: Average:
Temperature: TemperatureC °F -4.7 °F -1.4 °F
Dew Point: DewpointC °F -6.3 °F -4.3 °F
Humidity: Humidity% 71% 81%
Wind Speed: WindSpeedKMHmph 0.0mph 3.4mph
Wind Gust: WindSpeedGustKMHmph - -
Wind- - WNW
Pressure: PressurehPa in 1009.0 in -
Precipitation: 0.0 in    
Historical Graphs
 
 
Tabular Data for January 8, 2018
Time Temperature Dew Point Pressure Wind Wind Speed Wind Gust Humidity Rainfall Rate (Hourly) solar Conditions
TemperatureC °F DewpointC °F PressurehPa in Calm     Humidity% HourlyPrecipMM in SoftwareType W/m2 Conditions
00:00 -0.2 °F -3.4 °F 1009.0 in West 4.5 mph 16.7 mph 79% 0.0 in WeatherDisplay:10.37 W/m2 FEW
00:05 -0.2 °F -3.6 °F 1009.0 in NNW 2.3 mph 5.6 mph 78% 0.0 in WeatherDisplay:10.37 W/m2 FEW
00:10 -0.1 °F -3.7 °F 1009.0 in NW 7.4 mph 20.9 mph 77% 0.0 in WeatherDisplay:10.37 W/m2 FEW
00:16 0.1 °F -3.7 °F 1009.0 in WNW 1.9 mph 7.4 mph 76% 0.0 in WeatherDisplay:10.37 W/m2 FEW
00:21 0.2 °F -3.6 °F 1009.0 in NW 5.8 mph 22.5 mph 76% 0.0 in WeatherDisplay:10.37 W/m2 FEW
00:26 0.3 °F -3.6 °F 1009.0 in SE 3.9 mph 16.7 mph 75% 0.0 in WeatherDisplay:10.37 W/m2 FEW
00:32 0.3 °F -3.6 °F 1009.0 in NW 3.5 mph 6.4 mph 75% 0.0 in WeatherDisplay:10.37 W/m2 FEW
00:37 0.3 °F -3.6 °F 1009.4 in NNW 12.9 mph 18.5 mph 75% 0.0 in WeatherDisplay:10.37 W/m2 FEW
00:43 0.4 °F -3.7 °F 1009.4 in West 6.4 mph 18.5 mph 74% 0.0 in WeatherDisplay:10.37 W/m2 FEW
00:48 0.4 °F -3.7 °F 1009.4 in West 3.9 mph 9.3 mph 74% 0.0 in WeatherDisplay:10.37 W/m2 FEW
00:54 0.5 °F -3.8 °F 1009.4 in NW 3.1 mph 11.1 mph 73% 0.0 in WeatherDisplay:10.37 W/m2 FEW
00:59 0.6 °F -3.7 °F 1009.4 in NNW 4.3 mph 11.1 mph 73% 0.0 in WeatherDisplay:10.37 W/m2 FEW
01:04 0.6 °F -3.9 °F 1009.4 in West 1.4 mph 9.3 mph 72% 0.0 in WeatherDisplay:10.37 W/m2 FEW
01:09 0.6 °F -3.7 °F 1009.4 in NNW 5.5 mph 13.0 mph 73% 0.0 in WeatherDisplay:10.37 W/m2 FEW
01:15 0.5 °F -3.8 °F 1009.7 in SW 9.5 mph 18.5 mph 73% 0.0 in WeatherDisplay:10.37 W/m2 FEW
01:20 0.6 °F -3.7 °F 1009.4 in WSW 12.9 mph 27.8 mph 73% 0.0 in WeatherDisplay:10.37 W/m2 FEW
01:25 0.5 °F -3.8 °F 1009.7 in North 1.1 mph 7.4 mph 73% 0.0 in WeatherDisplay:10.37 W/m2 FEW
01:30 0.4 °F -3.7 °F 1009.7 in ENE 2.6 mph 13.0 mph 74% 0.0 in WeatherDisplay:10.37 W/m2 FEW
01:35 0.4 °F -3.7 °F 1009.7 in NW 5.5 mph 13.0 mph 74% 0.0 in WeatherDisplay:10.37 W/m2 FEW
01:40 0.3 °F -3.6 °F 1009.7 in WSW 4.5 mph 7.4 mph 75% 0.0 in WeatherDisplay:10.37 W/m2 FEW
01:45 0.3 °F -3.4 °F 1010.0 in NNW 1.3 mph   76% 0.0 in WeatherDisplay:10.37 W/m2 FEW
01:51 0.2 °F -3.4 °F 1010.0 in WNW 6.4 mph 18.5 mph 77% 0.0 in WeatherDisplay:10.37 W/m2 FEW
01:56 0.2 °F -3.4 °F 1009.7 in North 7.1 mph 17.7 mph 77% 0.0 in WeatherDisplay:10.37 W/m2 FEW
02:01 0.1 °F -3.3 °F 1010.0 in West 4.3 mph 4.8 mph 78% 0.0 in WeatherDisplay:10.37 W/m2 FEW
02:06 0.1 °F -3.3 °F 1010.0 in WNW 6.8 mph 17.7 mph 78% 0.0 in WeatherDisplay:10.37 W/m2 FEW
02:11 -0.1 °F -3.1 °F 1010.0 in WNW 7.4 mph 8.0 mph 80% 0.0 in WeatherDisplay:10.37 W/m2 FEW
02:17 -0.2 °F -3.1 °F 1010.0 in WSW 4.2 mph 13.0 mph 81% 0.0 in WeatherDisplay:10.37 W/m2 FEW
02:23 -0.3 °F -2.8 °F 1010.0 in NW 9.2 mph 18.5 mph 83% 0.0 in WeatherDisplay:10.37 W/m2 FEW
02:29 -0.4 °F -2.9 °F 1010.0 in WSW 7.4 mph 18.5 mph 83% 0.0 in WeatherDisplay:10.37 W/m2 FEW
02:36 -0.4 °F -2.9 °F 1010.0 in SSW 2.4 mph 5.6 mph 83% 0.0 in WeatherDisplay:10.37 W/m2 FEW
02:41 -0.4 °F -3.0 °F 1010.0 in WSW 3.2 mph 14.8 mph 83% 0.0 in WeatherDisplay:10.37 W/m2 FEW
02:49 -0.4 °F -2.8 °F 1010.0 in South 4.3 mph 7.4 mph 84% 0.0 in WeatherDisplay:10.37 W/m2 FEW
02:55 -0.4 °F -2.9 °F 1010.0 in NW 5.1 mph 14.8 mph 83% 0.0 in WeatherDisplay:10.37 W/m2 FEW
03:06 -0.3 °F -3.0 °F 1010.0 in NNW 5.6 mph 9.3 mph 82% 0.0 in WeatherDisplay:10.37 W/m2 FEW
03:11 -0.2 °F -2.9 °F 1010.4 in NNW 1.4 mph 16.7 mph 82% 0.0 in WeatherDisplay:10.37 W/m2 FEW
03:16 -0.2 °F -2.9 °F 1010.4 in WNW 1.6 mph 5.6 mph 82% 0.0 in WeatherDisplay:10.37 W/m2 FEW
03:24 -0.1 °F -3.0 °F 1010.4 in SSE 3.7 mph 18.5 mph 81% 0.0 in WeatherDisplay:10.37 W/m2 FEW
03:29 -0.1 °F -2.9 °F 1010.4 in NNW 7.4 mph 20.4 mph 81% 0.0 in WeatherDisplay:10.37 W/m2 FEW
03:34 0.0 °F -3.1 °F 1010.4 in North 7.2 mph 18.5 mph 80% 0.0 in WeatherDisplay:10.37 W/m2 FEW
03:39 0.1 °F -3.0 °F 1010.4 in WNW 5.1 mph 18.5 mph 80% 0.0 in WeatherDisplay:10.37 W/m2 FEW
03:45 0.1 °F -2.7 °F 1011.1 in SSW 15.8 mph 27.8 mph 82% 0.0 in WeatherDisplay:10.37 W/m2 FEW
03:50 -0.1 °F -2.5 °F 1011.1 in SE 5.1 mph 13.0 mph 84% 0.0 in WeatherDisplay:10.37 W/m2 FEW
03:55 -0.2 °F -2.9 °F 1011.1 in North 7.4 mph 22.2 mph 82% 0.0 in WeatherDisplay:10.37 W/m2 FEW
04:02 -0.1 °F -2.9 °F 1011.4 in WNW 12.6 mph 22.2 mph 81% 0.0 in WeatherDisplay:10.37 W/m2 FEW
04:09 0.1 °F -3.1 °F 1011.4 in NW 14.2 mph 27.8 mph 79% 0.0 in WeatherDisplay:10.37 W/m2 FEW
04:17 0.1 °F -3.3 °F 1011.7 in WNW 9.8 mph 25.9 mph 78% 0.0 in WeatherDisplay:10.37 W/m2 FEW
04:25 0.1 °F -3.4 °F 1011.7 in NW 6.4 mph 20.4 mph 77% 0.0 in WeatherDisplay:10.37 W/m2 FEW
04:31 0.1 °F -3.6 °F 1012.1 in NW 4.8 mph 20.4 mph 76% 0.0 in WeatherDisplay:10.37 W/m2 FEW
04:36 0.1 °F -3.6 °F 1012.1 in NNW 8.5 mph 16.7 mph 76% 0.0 in WeatherDisplay:10.37 W/m2 FEW
04:41 0.1 °F -3.7 °F 1012.4 in NW 11.6 mph 27.4 mph 76% 0.0 in WeatherDisplay:10.37 W/m2 FEW
04:48 0.0 °F -3.9 °F 1012.4 in North 6.9 mph 8.0 mph 75% 0.0 in WeatherDisplay:10.37 W/m2 FEW
04:54 0.0 °F -3.9 °F 1012.8 in NW 3.5 mph 13.0 mph 75% 0.0 in WeatherDisplay:10.37 W/m2 FEW
05:01 -0.1 °F -4.1 °F 1013.1 in NNW 6.4 mph 16.7 mph 74% 0.0 in WeatherDisplay:10.37 W/m2 FEW
05:06 -0.2 °F -4.2 °F 1013.1 in NNW 14.5 mph 25.9 mph 74% 0.0 in WeatherDisplay:10.37 W/m2 FEW
05:12 -0.2 °F -4.2 °F 1013.1 in NW 6.0 mph 16.7 mph 74% 0.0 in WeatherDisplay:10.37 W/m2 FEW
05:18 -0.2 °F -4.3 °F 1013.4 in NNW 11.6 mph 20.4 mph 74% 0.0 in WeatherDisplay:10.37 W/m2 FEW
05:30 -0.3 °F -4.4 °F 1013.8 in NNE 8.5 mph 31.5 mph 74% 0.0 in WeatherDisplay:10.37 W/m2 FEW
06:01 -0.8 °F -5.0 °F 1014.4 in NW 10.6 mph 14.8 mph 73% 0.0 in WeatherDisplay:10.37 W/m2 FEW
06:48 -1.5 °F -5.7 °F 1015.8 in NNW 8.8 mph 30.6 mph 73% 0.0 in WeatherDisplay:10.37 W/m2 FEW
07:59 -1.7 °F -5.4 °F 1017.5 in West 6.0 mph 14.8 mph 76% 0.0 in WeatherDisplay:10.37 W/m2 FEW
09:40 -1.7 °F -5.7 °F 1019.9 in WNW 6.6 mph 13.0 mph 74% 0.0 in WeatherDisplay:10.37 W/m2 FEW
09:53 -1.7 °F -5.7 °F 1020.2 in WNW 8.4 mph 20.4 mph 74% 0.0 in WeatherDisplay:10.37 W/m2 FEW
10:36 -1.8 °F -6.0 °F 1021.2 in WNW 9.3 mph 11.1 mph 73% 0.0 in WeatherDisplay:10.37 W/m2 FEW
11:05 -1.8 °F -6.2 °F 1021.6 in NNE 8.7 mph 20.9 mph 72% 0.0 in WeatherDisplay:10.37 W/m2 FEW
11:13 -1.8 °F -6.2 °F 1021.9 in NNW 7.2 mph 16.7 mph 72% 0.0 in WeatherDisplay:10.37 W/m2 FEW
11:20 -1.8 °F -6.2 °F 1021.9 in NW 13.8 mph 27.8 mph 72% 0.0 in WeatherDisplay:10.37 W/m2 FEW
11:27 -1.7 °F -6.1 °F 1021.9 in WNW 8.4 mph 20.4 mph 72% 0.0 in WeatherDisplay:10.37 W/m2 FEW
11:29 -1.7 °F -6.1 °F 1021.9 in North 9.5 mph 14.8 mph 72% 0.0 in WeatherDisplay:10.37 W/m2 FEW
11:34 -1.7 °F -6.1 °F 1022.2 in North 5.6 mph 13.0 mph 72% 0.0 in WeatherDisplay:10.37 W/m2 FEW
11:40 -1.7 °F -6.1 °F 1022.2 in NNW 6.1 mph 22.2 mph 72% 0.0 in WeatherDisplay:10.37 W/m2 FEW
11:45 -1.7 °F -6.1 °F 1022.6 in NW 5.3 mph 13.0 mph 72% 0.0 in WeatherDisplay:10.37 W/m2 FEW
11:51 -1.7 °F -6.2 °F 1022.6 in West 7.4 mph 14.8 mph 71% 0.0 in WeatherDisplay:10.37 W/m2 FEW
11:57 -1.6 °F -6.2 °F 1022.6 in North 4.7 mph 7.4 mph 71% 0.0 in WeatherDisplay:10.37 W/m2 FEW
12:02 -1.6 °F -6.2 °F 1022.6 in NW 9.0 mph 16.7 mph 71% 0.0 in WeatherDisplay:10.37 W/m2 FEW
12:03 -1.6 °F -6.2 °F 1022.6 in NW 2.7 mph 18.5 mph 71% 0.0 in WeatherDisplay:10.37 W/m2 FEW
12:08 -1.6 °F -6.2 °F 1022.6 in WNW 4.0 mph 11.1 mph 71% 0.0 in WeatherDisplay:10.37 W/m2 FEW
12:15 -1.6 °F -6.2 °F 1022.6 in NW 7.4 mph 14.8 mph 71% 0.0 in WeatherDisplay:10.37 W/m2 FEW
12:26 -1.6 °F -6.2 °F 1022.9 in NW 5.6 mph 16.1 mph 71% 0.0 in WeatherDisplay:10.37 W/m2 FEW
12:31 -1.6 °F -6.1 °F 1022.9 in West 3.1 mph 5.6 mph 71% 0.0 in WeatherDisplay:10.37 W/m2 FEW
12:36 -1.6 °F -6.2 °F 1023.2 in WNW 6.3 mph 13.0 mph 71% 0.0 in WeatherDisplay:10.37 W/m2 FEW
12:42 -1.6 °F -6.1 °F 1023.2 in NNW 0.6 mph 7.4 mph 71% 0.0 in WeatherDisplay:10.37 W/m2 FEW
12:47 -1.6 °F -6.2 °F 1023.2 in NW 5.6 mph 11.1 mph 71% 0.0 in WeatherDisplay:10.37 W/m2 FEW
12:54 -1.6 °F -6.1 °F 1023.2 in NW 7.9 mph 8.0 mph 71% 0.0 in WeatherDisplay:10.37 W/m2 FEW
13:00 -1.6 °F -6.1 °F 1023.6 in NW 1.1 mph 5.6 mph 71% 0.0 in WeatherDisplay:10.37 W/m2 FEW
13:05 -1.6 °F -5.9 °F 1023.6 in NNW 1.4 mph 7.4 mph 72% 0.0 in WeatherDisplay:10.37 W/m2 FEW
13:11 -1.6 °F -5.9 °F 1023.6 in West 3.5 mph 13.0 mph 72% 0.0 in WeatherDisplay:10.37 W/m2 FEW
13:17 -1.6 °F -6.0 °F 1023.6 in NW 6.4 mph 6.4 mph 72% 0.0 in WeatherDisplay:10.37 W/m2 FEW
13:22 -1.6 °F -5.9 °F 1023.6 in NW 1.9 mph 20.4 mph 72% 0.0 in WeatherDisplay:10.37 W/m2 FEW
13:28 -1.6 °F -5.9 °F 1023.6 in WNW 5.1 mph 9.3 mph 72% 0.0 in WeatherDisplay:10.37 W/m2 FEW
13:29 -1.6 °F -5.9 °F 1023.6 in WNW 2.1 mph 7.4 mph 72% 0.0 in WeatherDisplay:10.37 W/m2 FEW
13:34 -1.6 °F -5.9 °F 1023.6 in WNW 4.2 mph 9.3 mph 72% 0.0 in WeatherDisplay:10.37 W/m2 FEW
13:48 -1.6 °F -5.9 °F 1023.9 in NW 10.0 mph 16.7 mph 72% 0.0 in WeatherDisplay:10.37 W/m2 FEW
13:53 -1.5 °F -5.9 °F 1023.9 in West 2.4 mph 11.1 mph 72% 0.0 in WeatherDisplay:10.37 W/m2 FEW
14:01 -1.4 °F -5.7 °F 1023.9 in WNW 1.0 mph 3.7 mph 73% 0.0 in WeatherDisplay:10.37 W/m2 FEW
14:08 -1.6 °F -5.8 °F 1024.3 in NNW 2.3 mph 9.7 mph 73% 0.0 in WeatherDisplay:10.37 W/m2 FEW
14:14 -1.6 °F -5.6 °F 1024.3 in NNW 5.6 mph 14.8 mph 74% 0.0 in WeatherDisplay:10.37 W/m2 FEW
14:22 -1.6 °F -5.4 °F 1024.3 in Calm   5.6 mph 75% 0.0 in WeatherDisplay:10.37 W/m2 FEW
14:33 -1.7 °F -5.3 °F 1024.6 in Calm     76% 0.0 in WeatherDisplay:10.37 W/m2 FEW
14:39 -1.7 °F -5.4 °F 1024.6 in Calm     76% 0.0 in WeatherDisplay:10.37 W/m2 FEW
14:51 -1.7 °F -5.2 °F 1024.6 in Calm     77% 0.0 in WeatherDisplay:10.37 W/m2 FEW
14:57 -1.8 °F -5.2 °F 1024.6 in Calm     78% 0.0 in WeatherDisplay:10.37 W/m2 FEW
15:04 -2.0 °F -5.2 °F 1024.6 in Calm     79% 0.0 in WeatherDisplay:10.37 W/m2 FEW
15:09 -2.1 °F -5.1 °F 1024.6 in Calm     80% 0.0 in WeatherDisplay:10.37 W/m2 FEW
15:16 -2.2 °F -5.2 °F 1024.6 in Calm     80% 0.0 in WeatherDisplay:10.37 W/m2 FEW
15:27 -2.3 °F -5.2 °F 1024.6 in Calm     81% 0.0 in WeatherDisplay:10.37 W/m2 FEW
15:32 -2.5 °F -5.3 °F 1024.6 in Calm     81% 0.0 in WeatherDisplay:10.37 W/m2 FEW
15:38 -2.7 °F -5.3 °F 1024.6 in Calm     82% 0.0 in WeatherDisplay:10.37 W/m2 FEW
15:42 -2.8 °F -5.4 °F 1024.6 in Calm     82% 0.0 in WeatherDisplay:10.37 W/m2 FEW
15:48 -2.9 °F -5.4 °F 1024.6 in Calm     83% 0.0 in WeatherDisplay:10.37 W/m2 FEW
15:57 -3.1 °F -5.4 °F 1024.6 in Calm     84% 0.0 in WeatherDisplay:10.37 W/m2 FEW
16:04 -3.3 °F -5.4 °F 1024.6 in Calm     85% 0.0 in WeatherDisplay:10.37 W/m2 FEW
16:10 -3.3 °F -5.5 °F 1024.6 in Calm     85% 0.0 in WeatherDisplay:10.37 W/m2 FEW
16:13 -3.4 °F -5.6 °F 1024.6 in Calm     85% 0.0 in WeatherDisplay:10.37 W/m2 FEW
16:18 -3.4 °F -5.4 °F 1024.6 in Calm     86% 0.0 in WeatherDisplay:10.37 W/m2 FEW
16:25 -3.4 °F -5.4 °F 1024.6 in Calm     86% 0.0 in WeatherDisplay:10.37 W/m2 FEW
16:32 -3.5 °F -5.5 °F 1024.6 in Calm     86% 0.0 in WeatherDisplay:10.37 W/m2 FEW
16:37 -3.6 °F -5.6 °F 1024.6 in Calm     86% 0.0 in WeatherDisplay:10.37 W/m2 FEW
16:54 -3.8 °F -5.6 °F 1024.6 in Calm     87% 0.0 in WeatherDisplay:10.37 W/m2 FEW
17:05 -4.0 °F -5.8 °F 1024.6 in Calm     87% 0.0 in WeatherDisplay:10.37 W/m2 FEW
17:11 -4.1 °F -5.9 °F 1024.9 in Calm     87% 0.0 in WeatherDisplay:10.37 W/m2 FEW
17:31 -4.4 °F -6.1 °F 1024.9 in Calm     88% 0.0 in WeatherDisplay:10.37 W/m2 FEW
17:46 -4.7 °F -6.3 °F 1024.9 in Calm     89% 0.0 in WeatherDisplay:10.37 W/m2 FEW
17:53 -4.6 °F -6.0 °F 1025.3 in Calm     90% 0.0 in WeatherDisplay:10.37 W/m2 FEW
18:04 -4.3 °F -5.5 °F 1025.3 in Calm     91% 0.0 in WeatherDisplay:10.37 W/m2 FEW
18:26 -3.6 °F -4.8 °F 1025.3 in Calm     91% 0.0 in WeatherDisplay:10.37 W/m2 FEW
18:33 -3.4 °F -4.7 °F 1025.3 in Calm     91% 0.0 in WeatherDisplay:10.37 W/m2 FEW
18:38 -3.3 °F -4.6 °F 1025.3 in Calm     91% 0.0 in WeatherDisplay:10.37 W/m2 FEW
18:44 -3.2 °F -4.4 °F 1025.3 in Calm     91% 0.0 in WeatherDisplay:10.37 W/m2 FEW
18:48 -3.1 °F -4.3 °F 1025.3 in Calm     91% 0.0 in WeatherDisplay:10.37 W/m2 FEW
18:53 -3.0 °F -4.3 °F 1024.9 in Calm     91% 0.0 in WeatherDisplay:10.37 W/m2 FEW
18:58 -2.9 °F -4.2 °F 1025.3 in Calm     91% 0.0 in WeatherDisplay:10.37 W/m2 FEW
19:07 -2.7 °F -4.0 °F 1025.3 in Calm     91% 0.0 in WeatherDisplay:10.37 W/m2 FEW
19:12 -2.7 °F -3.9 °F 1025.3 in Calm     91% 0.0 in WeatherDisplay:10.37 W/m2 FEW
19:17 -2.6 °F -3.8 °F 1025.3 in Calm     91% 0.0 in WeatherDisplay:10.37 W/m2 FEW
19:22 -2.5 °F -3.8 °F 1025.3 in Calm     91% 0.0 in WeatherDisplay:10.37 W/m2 FEW
19:28 -2.4 °F -3.7 °F 1024.9 in Calm     91% 0.0 in WeatherDisplay:10.37 W/m2 FEW
19:33 -2.4 °F -3.8 °F 1024.9 in Calm     90% 0.0 in WeatherDisplay:10.37 W/m2 FEW
19:38 -2.4 °F -3.8 °F 1025.3 in Calm     90% 0.0 in WeatherDisplay:10.37 W/m2 FEW
19:43 -2.3 °F -3.8 °F 1025.3 in Calm     90% 0.0 in WeatherDisplay:10.37 W/m2 FEW
19:48 -2.3 °F -3.7 °F 1025.3 in Calm     90% 0.0 in WeatherDisplay:10.37 W/m2 FEW
19:53 -2.3 °F -3.7 °F 1024.9 in Calm     90% 0.0 in WeatherDisplay:10.37 W/m2 FEW
19:59 -2.3 °F -3.7 °F 1024.9 in Calm     90% 0.0 in WeatherDisplay:10.37 W/m2 FEW
20:04 -2.2 °F -3.7 °F 1024.9 in Calm     90% 0.0 in WeatherDisplay:10.37 W/m2 FEW
20:07 -2.2 °F -3.7 °F 1024.9 in Calm     90% 0.0 in WeatherDisplay:10.37 W/m2 FEW
20:12 -2.2 °F -3.7 °F 1024.9 in Calm     90% 0.0 in WeatherDisplay:10.37 W/m2 FEW
20:18 -2.2 °F -3.6 °F 1024.9 in Calm     90% 0.0 in WeatherDisplay:10.37 W/m2 FEW
20:23 -2.2 °F -3.4 °F 1024.9 in Calm     91% 0.0 in WeatherDisplay:10.37 W/m2 FEW
20:29 -2.1 °F -3.4 °F 1024.9 in Calm     91% 0.0 in WeatherDisplay:10.37 W/m2 FEW
20:30 -2.1 °F -3.4 °F 1024.9 in Calm     91% 0.0 in WeatherDisplay:10.37 W/m2 FEW
20:36 -2.1 °F -3.3 °F 1024.9 in Calm     91% 0.0 in WeatherDisplay:10.37 W/m2 FEW
20:42 -2.1 °F -3.3 °F 1024.9 in Calm     91% 0.0 in WeatherDisplay:10.37 W/m2 FEW
20:48 -2.1 °F -3.3 °F 1024.9 in Calm     91% 0.0 in WeatherDisplay:10.37 W/m2 FEW
20:54 -2.0 °F -3.3 °F 1025.3 in Calm     91% 0.0 in WeatherDisplay:10.37 W/m2 FEW
20:59 -2.0 °F -3.3 °F 1024.9 in Calm     91% 0.0 in WeatherDisplay:10.37 W/m2 FEW
21:05 -1.9 °F -3.2 °F 1024.9 in Calm     91% 0.0 in WeatherDisplay:10.37 W/m2 FEW
21:11 -1.9 °F -3.2 °F 1025.3 in Calm     91% 0.0 in WeatherDisplay:10.37 W/m2 FEW
21:17 -1.9 °F -3.2 °F 1025.3 in Calm     91% 0.0 in WeatherDisplay:10.37 W/m2 FEW
21:22 -1.9 °F -3.2 °F 1025.3 in Calm     91% 0.0 in WeatherDisplay:10.37 W/m2 FEW
21:23 -1.9 °F -3.2 °F 1025.3 in Calm     91% 0.0 in WeatherDisplay:10.37 W/m2 FEW
21:28 -1.9 °F -3.2 °F 1025.3 in Calm     91% 0.0 in WeatherDisplay:10.37 W/m2 FEW
21:33 -1.8 °F -3.1 °F 1025.3 in Calm     91% 0.0 in WeatherDisplay:10.37 W/m2 FEW
21:38 -1.8 °F -3.1 °F 1025.3 in Calm     91% 0.0 in WeatherDisplay:10.37 W/m2 FEW
21:44 -1.8 °F -3.1 °F 1025.3 in Calm     91% 0.0 in WeatherDisplay:10.37 W/m2 FEW
21:47 -1.8 °F -3.1 °F 1025.3 in Calm     91% 0.0 in WeatherDisplay:10.37 W/m2 FEW
21:52 -1.8 °F -3.1 °F 1025.3 in Calm     91% 0.0 in WeatherDisplay:10.37 W/m2 FEW
21:58 -1.8 °F -3.1 °F 1025.3 in Calm     91% 0.0 in WeatherDisplay:10.37 W/m2 FEW
22:07 -1.7 °F -3.0 °F 1025.6 in Calm     91% 0.0 in WeatherDisplay:10.37 W/m2 FEW
22:14 -1.7 °F -3.0 °F 1025.3 in Calm     91% 0.0 in WeatherDisplay:10.37 W/m2 FEW
23:10 -1.4 °F -2.6 °F 1025.6 in Calm     92% 0.0 in WeatherDisplay:10.37 W/m2 FEW
23:23 -1.3 °F -2.4 °F 1025.6 in Calm     92% 0.0 in WeatherDisplay:10.37 W/m2 FEW
23:31 -1.3 °F -2.4 °F 1025.6 in Calm     92% 0.0 in WeatherDisplay:10.37 W/m2 FEW
23:50 -1.3 °F -2.3 °F 1025.3 in Calm     93% 0.0 in WeatherDisplay:10.37 W/m2 FEW
Tuulensuunkaari, Veikkola, Suomi
Compliments of Weather Underground - 2 mb